sensor_id;sensor_type;location;lat;lon;timestamp;P1;durP1;ratioP1;P2;durP2;ratioP2
67904;SDS011;54709;43.614;1.576;2022-09-09T00:01:37;5.30;;;1.40;;
67904;SDS011;54709;43.614;1.576;2022-09-09T00:04:15;4.97;;;1.60;;
67904;SDS011;54709;43.614;1.576;2022-09-09T00:09:48;7.82;;;1.55;;
67904;SDS011;54709;43.614;1.576;2022-09-09T00:23:12;5.30;;;1.40;;
67904;SDS011;54709;43.614;1.576;2022-09-09T00:25:58;4.88;;;1.42;;
67904;SDS011;54709;43.614;1.576;2022-09-09T00:28:33;2.17;;;1.33;;
67904;SDS011;54709;43.614;1.576;2022-09-09T00:31:14;3.55;;;1.58;;
67904;SDS011;54709;43.614;1.576;2022-09-09T00:33:41;4.20;;;1.50;;
67904;SDS011;54709;43.614;1.576;2022-09-09T00:36:15;2.65;;;1.20;;
67904;SDS011;54709;43.614;1.576;2022-09-09T00:38:47;4.47;;;1.50;;
67904;SDS011;54709;43.614;1.576;2022-09-09T00:41:19;5.78;;;1.60;;
67904;SDS011;54709;43.614;1.576;2022-09-09T00:43:46;3.67;;;1.30;;
67904;SDS011;54709;43.614;1.576;2022-09-09T01:02:11;4.60;;;1.30;;
67904;SDS011;54709;43.614;1.576;2022-09-09T01:04:41;5.25;;;1.23;;
67904;SDS011;54709;43.614;1.576;2022-09-09T01:07:11;3.22;;;1.30;;
67904;SDS011;54709;43.614;1.576;2022-09-09T01:12:41;4.63;;;1.55;;
67904;SDS011;54709;43.614;1.576;2022-09-09T01:18:08;4.45;;;1.40;;
67904;SDS011;54709;43.614;1.576;2022-09-09T01:26:33;3.53;;;1.30;;
67904;SDS011;54709;43.614;1.576;2022-09-09T01:29:00;5.43;;;1.58;;
67904;SDS011;54709;43.614;1.576;2022-09-09T01:31:27;6.07;;;1.55;;
67904;SDS011;54709;43.614;1.576;2022-09-09T01:33:55;4.78;;;1.27;;
67904;SDS011;54709;43.614;1.576;2022-09-09T01:38:46;2.78;;;1.17;;
67904;SDS011;54709;43.614;1.576;2022-09-09T01:41:11;3.28;;;1.17;;
67904;SDS011;54709;43.614;1.576;2022-09-09T01:43:37;5.93;;;1.50;;
67904;SDS011;54709;43.614;1.576;2022-09-09T01:46:02;4.70;;;1.20;;
67904;SDS011;54709;43.614;1.576;2022-09-09T01:48:28;4.78;;;1.50;;
67904;SDS011;54709;43.614;1.576;2022-09-09T01:50:54;6.50;;;1.45;;
67904;SDS011;54709;43.614;1.576;2022-09-09T01:53:20;4.55;;;1.45;;
67904;SDS011;54709;43.614;1.576;2022-09-09T01:55:58;4.80;;;1.50;;
67904;SDS011;54709;43.614;1.576;2022-09-09T01:58:38;3.72;;;1.58;;
67904;SDS011;54709;43.614;1.576;2022-09-09T02:03:35;4.78;;;1.70;;
67904;SDS011;54709;43.614;1.576;2022-09-09T02:08:39;3.50;;;1.50;;
67904;SDS011;54709;43.614;1.576;2022-09-09T02:11:17;4.43;;;1.50;;
67904;SDS011;54709;43.614;1.576;2022-09-09T02:13:44;6.38;;;1.80;;
67904;SDS011;54709;43.614;1.576;2022-09-09T02:16:12;3.83;;;1.45;;
67904;SDS011;54709;43.614;1.576;2022-09-09T02:18:51;4.70;;;1.45;;
67904;SDS011;54709;43.614;1.576;2022-09-09T02:21:24;4.95;;;1.50;;
67904;SDS011;54709;43.614;1.576;2022-09-09T02:23:50;7.22;;;1.75;;
67904;SDS011;54709;43.614;1.576;2022-09-09T02:26:18;3.72;;;1.30;;
67904;SDS011;54709;43.614;1.576;2022-09-09T02:28:50;5.07;;;1.45;;
67904;SDS011;54709;43.614;1.576;2022-09-09T02:31:17;4.13;;;1.30;;
67904;SDS011;54709;43.614;1.576;2022-09-09T02:33:44;6.30;;;1.52;;
67904;SDS011;54709;43.614;1.576;2022-09-09T02:36:14;2.22;;;1.05;;
67904;SDS011;54709;43.614;1.576;2022-09-09T02:38:42;5.00;;;1.40;;
67904;SDS011;54709;43.614;1.576;2022-09-09T02:41:10;4.43;;;1.42;;
67904;SDS011;54709;43.614;1.576;2022-09-09T02:43:36;5.78;;;1.17;;
67904;SDS011;54709;43.614;1.576;2022-09-09T02:49:06;3.95;;;1.30;;
67904;SDS011;54709;43.614;1.576;2022-09-09T02:51:53;3.58;;;1.30;;
67904;SDS011;54709;43.614;1.576;2022-09-09T02:54:26;3.63;;;1.25;;
67904;SDS011;54709;43.614;1.576;2022-09-09T02:56:56;6.15;;;1.20;;
67904;SDS011;54709;43.614;1.576;2022-09-09T02:59:27;4.13;;;1.25;;
67904;SDS011;54709;43.614;1.576;2022-09-09T03:01:54;3.85;;;1.30;;
67904;SDS011;54709;43.614;1.576;2022-09-09T03:04:19;4.78;;;1.60;;
67904;SDS011;54709;43.614;1.576;2022-09-09T03:06:45;7.25;;;1.25;;
67904;SDS011;54709;43.614;1.576;2022-09-09T03:09:10;5.43;;;1.50;;
67904;SDS011;54709;43.614;1.576;2022-09-09T03:11:36;4.20;;;1.40;;
67904;SDS011;54709;43.614;1.576;2022-09-09T03:14:03;4.25;;;1.40;;
67904;SDS011;54709;43.614;1.576;2022-09-09T03:16:29;4.22;;;1.33;;
67904;SDS011;54709;43.614;1.576;2022-09-09T03:18:54;2.53;;;1.33;;
67904;SDS011;54709;43.614;1.576;2022-09-09T03:21:20;5.75;;;1.50;;
67904;SDS011;54709;43.614;1.576;2022-09-09T03:23:46;3.92;;;1.27;;
67904;SDS011;54709;43.614;1.576;2022-09-09T03:26:11;3.47;;;1.20;;
67904;SDS011;54709;43.614;1.576;2022-09-09T03:28:37;4.80;;;1.55;;
67904;SDS011;54709;43.614;1.576;2022-09-09T03:31:03;7.45;;;1.50;;
67904;SDS011;54709;43.614;1.576;2022-09-09T03:33:29;4.40;;;1.30;;
67904;SDS011;54709;43.614;1.576;2022-09-09T03:35:56;3.85;;;1.30;;
67904;SDS011;54709;43.614;1.576;2022-09-09T03:38:24;3.70;;;1.30;;
67904;SDS011;54709;43.614;1.576;2022-09-09T03:40:53;5.40;;;1.13;;
67904;SDS011;54709;43.614;1.576;2022-09-09T03:43:25;2.08;;;1.00;;
67904;SDS011;54709;43.614;1.576;2022-09-09T03:45:51;3.13;;;1.17;;
67904;SDS011;54709;43.614;1.576;2022-09-09T03:48:17;5.35;;;1.10;;
67904;SDS011;54709;43.614;1.576;2022-09-09T03:50:44;4.65;;;1.20;;
67904;SDS011;54709;43.614;1.576;2022-09-09T03:53:10;2.50;;;1.17;;
67904;SDS011;54709;43.614;1.576;2022-09-09T03:55:36;2.58;;;1.05;;
67904;SDS011;54709;43.614;1.576;2022-09-09T03:58:01;4.72;;;1.30;;
67904;SDS011;54709;43.614;1.576;2022-09-09T04:00:26;2.97;;;1.10;;
67904;SDS011;54709;43.614;1.576;2022-09-09T04:02:52;1.85;;;1.10;;
67904;SDS011;54709;43.614;1.576;2022-09-09T04:05:20;4.47;;;1.33;;
67904;SDS011;54709;43.614;1.576;2022-09-09T04:07:46;2.30;;;1.08;;
67904;SDS011;54709;43.614;1.576;2022-09-09T04:10:11;3.03;;;1.30;;
67904;SDS011;54709;43.614;1.576;2022-09-09T04:12:37;4.05;;;1.27;;
67904;SDS011;54709;43.614;1.576;2022-09-09T04:15:02;4.93;;;1.27;;
67904;SDS011;54709;43.614;1.576;2022-09-09T04:17:28;2.25;;;0.93;;
67904;SDS011;54709;43.614;1.576;2022-09-09T04:19:53;4.55;;;1.33;;
67904;SDS011;54709;43.614;1.576;2022-09-09T04:22:19;2.95;;;1.38;;
67904;SDS011;54709;43.614;1.576;2022-09-09T04:24:44;4.38;;;1.13;;
67904;SDS011;54709;43.614;1.576;2022-09-09T04:27:09;1.88;;;1.00;;
67904;SDS011;54709;43.614;1.576;2022-09-09T04:29:35;4.65;;;1.20;;
67904;SDS011;54709;43.614;1.576;2022-09-09T04:32:00;3.67;;;1.17;;
67904;SDS011;54709;43.614;1.576;2022-09-09T04:34:26;2.28;;;1.10;;
67904;SDS011;54709;43.614;1.576;2022-09-09T04:36:51;3.17;;;1.00;;
67904;SDS011;54709;43.614;1.576;2022-09-09T04:39:17;3.15;;;1.02;;
67904;SDS011;54709;43.614;1.576;2022-09-09T04:41:42;4.60;;;1.35;;
67904;SDS011;54709;43.614;1.576;2022-09-09T04:44:07;1.98;;;1.10;;
67904;SDS011;54709;43.614;1.576;2022-09-09T04:46:33;4.97;;;1.10;;
67904;SDS011;54709;43.614;1.576;2022-09-09T04:48:59;1.95;;;1.10;;
67904;SDS011;54709;43.614;1.576;2022-09-09T04:51:24;4.57;;;1.40;;
67904;SDS011;54709;43.614;1.576;2022-09-09T04:53:50;5.47;;;1.17;;
67904;SDS011;54709;43.614;1.576;2022-09-09T04:56:16;4.40;;;1.27;;
67904;SDS011;54709;43.614;1.576;2022-09-09T04:58:42;2.42;;;1.30;;
67904;SDS011;54709;43.614;1.576;2022-09-09T05:03:43;3.53;;;1.13;;
67904;SDS011;54709;43.614;1.576;2022-09-09T05:06:13;2.95;;;1.20;;
67904;SDS011;54709;43.614;1.576;2022-09-09T05:08:41;2.85;;;1.13;;
67904;SDS011;54709;43.614;1.576;2022-09-09T05:11:20;4.38;;;1.40;;
67904;SDS011;54709;43.614;1.576;2022-09-09T05:13:50;2.10;;;0.95;;
67904;SDS011;54709;43.614;1.576;2022-09-09T05:16:17;2.00;;;1.00;;
67904;SDS011;54709;43.614;1.576;2022-09-09T05:18:43;2.95;;;1.00;;
67904;SDS011;54709;43.614;1.576;2022-09-09T05:21:09;2.40;;;1.20;;
67904;SDS011;54709;43.614;1.576;2022-09-09T05:23:35;5.22;;;1.30;;
67904;SDS011;54709;43.614;1.576;2022-09-09T05:26:02;2.85;;;1.10;;
67904;SDS011;54709;43.614;1.576;2022-09-09T05:28:28;3.30;;;1.15;;
67904;SDS011;54709;43.614;1.576;2022-09-09T05:30:58;3.58;;;1.08;;
67904;SDS011;54709;43.614;1.576;2022-09-09T05:33:25;7.32;;;1.50;;
67904;SDS011;54709;43.614;1.576;2022-09-09T05:36:00;2.20;;;1.08;;
67904;SDS011;54709;43.614;1.576;2022-09-09T05:38:26;4.00;;;1.27;;
67904;SDS011;54709;43.614;1.576;2022-09-09T05:40:52;4.25;;;1.23;;
67904;SDS011;54709;43.614;1.576;2022-09-09T05:43:19;2.97;;;1.23;;
67904;SDS011;54709;43.614;1.576;2022-09-09T05:45:45;5.88;;;1.23;;
67904;SDS011;54709;43.614;1.576;2022-09-09T05:48:12;3.08;;;1.40;;
67904;SDS011;54709;43.614;1.576;2022-09-09T05:50:41;2.85;;;1.20;;
67904;SDS011;54709;43.614;1.576;2022-09-09T05:53:07;2.33;;;1.23;;
67904;SDS011;54709;43.614;1.576;2022-09-09T05:55:34;4.00;;;1.40;;
67904;SDS011;54709;43.614;1.576;2022-09-09T05:57:59;5.38;;;1.40;;
67904;SDS011;54709;43.614;1.576;2022-09-09T06:00:24;3.58;;;1.10;;
67904;SDS011;54709;43.614;1.576;2022-09-09T06:02:51;4.97;;;1.33;;
67904;SDS011;54709;43.614;1.576;2022-09-09T06:05:17;3.35;;;1.40;;
67904;SDS011;54709;43.614;1.576;2022-09-09T06:07:43;2.78;;;1.33;;
67904;SDS011;54709;43.614;1.576;2022-09-09T06:10:10;2.42;;;1.50;;
67904;SDS011;54709;43.614;1.576;2022-09-09T06:12:35;3.45;;;1.48;;
67904;SDS011;54709;43.614;1.576;2022-09-09T06:15:01;5.03;;;1.40;;
67904;SDS011;54709;43.614;1.576;2022-09-09T06:17:27;6.95;;;1.55;;
67904;SDS011;54709;43.614;1.576;2022-09-09T06:19:52;5.78;;;1.42;;
67904;SDS011;54709;43.614;1.576;2022-09-09T06:22:18;5.47;;;1.65;;
67904;SDS011;54709;43.614;1.576;2022-09-09T06:24:44;5.00;;;1.55;;
67904;SDS011;54709;43.614;1.576;2022-09-09T06:27:09;4.05;;;1.50;;
67904;SDS011;54709;43.614;1.576;2022-09-09T06:29:35;3.53;;;1.50;;
67904;SDS011;54709;43.614;1.576;2022-09-09T06:32:01;3.90;;;1.60;;
67904;SDS011;54709;43.614;1.576;2022-09-09T06:34:27;3.05;;;1.38;;
67904;SDS011;54709;43.614;1.576;2022-09-09T06:36:53;2.90;;;1.45;;
67904;SDS011;54709;43.614;1.576;2022-09-09T06:39:19;4.10;;;1.42;;
67904;SDS011;54709;43.614;1.576;2022-09-09T06:41:44;4.35;;;1.40;;
67904;SDS011;54709;43.614;1.576;2022-09-09T06:44:10;2.85;;;1.75;;
67904;SDS011;54709;43.614;1.576;2022-09-09T06:46:38;5.57;;;1.80;;
67904;SDS011;54709;43.614;1.576;2022-09-09T06:49:04;2.72;;;1.48;;
67904;SDS011;54709;43.614;1.576;2022-09-09T06:51:30;5.25;;;1.55;;
67904;SDS011;54709;43.614;1.576;2022-09-09T06:53:58;3.85;;;1.50;;
67904;SDS011;54709;43.614;1.576;2022-09-09T06:58:52;3.92;;;1.35;;
67904;SDS011;54709;43.614;1.576;2022-09-09T07:01:20;3.47;;;1.67;;
67904;SDS011;54709;43.614;1.576;2022-09-09T07:03:48;3.67;;;1.65;;
67904;SDS011;54709;43.614;1.576;2022-09-09T07:06:16;2.75;;;1.30;;
67904;SDS011;54709;43.614;1.576;2022-09-09T07:08:59;3.47;;;1.50;;
67904;SDS011;54709;43.614;1.576;2022-09-09T07:11:27;2.53;;;1.33;;
67904;SDS011;54709;43.614;1.576;2022-09-09T07:13:54;4.65;;;1.40;;
67904;SDS011;54709;43.614;1.576;2022-09-09T07:16:21;1.65;;;1.50;;
67904;SDS011;54709;43.614;1.576;2022-09-09T07:18:49;3.45;;;1.60;;
67904;SDS011;54709;43.614;1.576;2022-09-09T07:21:15;4.00;;;1.55;;
67904;SDS011;54709;43.614;1.576;2022-09-09T07:23:41;6.05;;;1.70;;
67904;SDS011;54709;43.614;1.576;2022-09-09T07:26:07;2.95;;;1.65;;
67904;SDS011;54709;43.614;1.576;2022-09-09T07:28:34;2.78;;;1.70;;
67904;SDS011;54709;43.614;1.576;2022-09-09T07:31:00;4.15;;;1.85;;
67904;SDS011;54709;43.614;1.576;2022-09-09T07:33:27;3.58;;;2.05;;
67904;SDS011;54709;43.614;1.576;2022-09-09T07:36:01;2.75;;;1.85;;
67904;SDS011;54709;43.614;1.576;2022-09-09T07:38:28;2.97;;;1.83;;
67904;SDS011;54709;43.614;1.576;2022-09-09T07:41:01;3.15;;;1.75;;
67904;SDS011;54709;43.614;1.576;2022-09-09T07:43:28;3.47;;;1.63;;
67904;SDS011;54709;43.614;1.576;2022-09-09T07:46:02;2.35;;;1.63;;
67904;SDS011;54709;43.614;1.576;2022-09-09T07:48:28;1.92;;;1.55;;
67904;SDS011;54709;43.614;1.576;2022-09-09T07:51:02;3.65;;;1.70;;
67904;SDS011;54709;43.614;1.576;2022-09-09T07:53:29;4.82;;;1.90;;
67904;SDS011;54709;43.614;1.576;2022-09-09T07:56:01;3.83;;;2.08;;
67904;SDS011;54709;43.614;1.576;2022-09-09T07:58:30;3.78;;;1.73;;
67904;SDS011;54709;43.614;1.576;2022-09-09T08:00:56;2.88;;;1.67;;
67904;SDS011;54709;43.614;1.576;2022-09-09T08:03:22;2.40;;;1.38;;
67904;SDS011;54709;43.614;1.576;2022-09-09T08:05:48;1.73;;;1.40;;
67904;SDS011;54709;43.614;1.576;2022-09-09T08:08:14;4.55;;;1.65;;
67904;SDS011;54709;43.614;1.576;2022-09-09T08:10:40;2.85;;;1.48;;
67904;SDS011;54709;43.614;1.576;2022-09-09T08:13:05;5.85;;;1.80;;
67904;SDS011;54709;43.614;1.576;2022-09-09T08:15:31;5.22;;;1.80;;
67904;SDS011;54709;43.614;1.576;2022-09-09T08:17:57;4.03;;;1.65;;
67904;SDS011;54709;43.614;1.576;2022-09-09T08:20:22;2.45;;;1.52;;
67904;SDS011;54709;43.614;1.576;2022-09-09T08:22:48;4.30;;;1.60;;
67904;SDS011;54709;43.614;1.576;2022-09-09T08:25:14;4.03;;;1.58;;
67904;SDS011;54709;43.614;1.576;2022-09-09T08:27:40;3.70;;;1.50;;
67904;SDS011;54709;43.614;1.576;2022-09-09T08:30:06;2.47;;;1.48;;
67904;SDS011;54709;43.614;1.576;2022-09-09T08:32:32;4.70;;;1.60;;
67904;SDS011;54709;43.614;1.576;2022-09-09T08:34:57;4.20;;;1.95;;
67904;SDS011;54709;43.614;1.576;2022-09-09T08:37:22;5.03;;;2.03;;
67904;SDS011;54709;43.614;1.576;2022-09-09T08:39:48;3.90;;;2.10;;
67904;SDS011;54709;43.614;1.576;2022-09-09T08:50:39;3.80;;;2.00;;
67904;SDS011;54709;43.614;1.576;2022-09-09T08:55:48;3.67;;;2.22;;
67904;SDS011;54709;43.614;1.576;2022-09-09T09:00:57;4.03;;;2.30;;
67904;SDS011;54709;43.614;1.576;2022-09-09T09:11:50;5.10;;;2.80;;
67904;SDS011;54709;43.614;1.576;2022-09-09T09:14:21;3.83;;;2.50;;
67904;SDS011;54709;43.614;1.576;2022-09-09T09:19:18;4.85;;;2.80;;
67904;SDS011;54709;43.614;1.576;2022-09-09T09:21:58;5.10;;;2.70;;
67904;SDS011;54709;43.614;1.576;2022-09-09T09:27:15;5.32;;;2.78;;
67904;SDS011;54709;43.614;1.576;2022-09-09T09:29:45;6.57;;;1.75;;
67904;SDS011;54709;43.614;1.576;2022-09-09T09:32:13;8.52;;;1.98;;
67904;SDS011;54709;43.614;1.576;2022-09-09T09:34:41;3.42;;;1.65;;
67904;SDS011;54709;43.614;1.576;2022-09-09T09:37:12;5.47;;;1.80;;
67904;SDS011;54709;43.614;1.576;2022-09-09T09:39:44;4.45;;;2.10;;
67904;SDS011;54709;43.614;1.576;2022-09-09T09:42:11;4.07;;;1.60;;
67904;SDS011;54709;43.614;1.576;2022-09-09T09:44:39;4.38;;;1.70;;
67904;SDS011;54709;43.614;1.576;2022-09-09T09:47:23;3.15;;;1.60;;
67904;SDS011;54709;43.614;1.576;2022-09-09T09:49:52;5.90;;;1.90;;
67904;SDS011;54709;43.614;1.576;2022-09-09T09:52:23;6.63;;;1.73;;
67904;SDS011;54709;43.614;1.576;2022-09-09T09:54:50;5.90;;;1.73;;
67904;SDS011;54709;43.614;1.576;2022-09-09T09:57:17;5.45;;;1.85;;
67904;SDS011;54709;43.614;1.576;2022-09-09T09:59:43;4.60;;;1.70;;
67904;SDS011;54709;43.614;1.576;2022-09-09T10:02:21;3.95;;;1.92;;
67904;SDS011;54709;43.614;1.576;2022-09-09T10:05:05;4.47;;;1.98;;
67904;SDS011;54709;43.614;1.576;2022-09-09T10:07:45;5.75;;;1.80;;
67904;SDS011;54709;43.614;1.576;2022-09-09T10:10:13;6.10;;;1.80;;
67904;SDS011;54709;43.614;1.576;2022-09-09T10:12:45;5.20;;;1.77;;
67904;SDS011;54709;43.614;1.576;2022-09-09T10:15:34;4.10;;;1.50;;
67904;SDS011;54709;43.614;1.576;2022-09-09T10:27:26;4.38;;;1.90;;
67904;SDS011;54709;43.614;1.576;2022-09-09T10:29:59;4.00;;;1.65;;
67904;SDS011;54709;43.614;1.576;2022-09-09T10:32:49;5.18;;;1.40;;
67904;SDS011;54709;43.614;1.576;2022-09-09T10:35:26;4.05;;;2.00;;
67904;SDS011;54709;43.614;1.576;2022-09-09T10:46:38;6.95;;;2.13;;
67904;SDS011;54709;43.614;1.576;2022-09-09T10:55:19;3.85;;;1.83;;
67904;SDS011;54709;43.614;1.576;2022-09-09T10:57:46;3.58;;;1.60;;
67904;SDS011;54709;43.614;1.576;2022-09-09T11:02:44;4.32;;;1.80;;
67904;SDS011;54709;43.614;1.576;2022-09-09T11:12:49;6.60;;;1.63;;
67904;SDS011;54709;43.614;1.576;2022-09-09T11:18:01;5.55;;;1.52;;
67904;SDS011;54709;43.614;1.576;2022-09-09T11:20:29;4.43;;;1.58;;
67904;SDS011;54709;43.614;1.576;2022-09-09T11:23:04;6.30;;;1.63;;
67904;SDS011;54709;43.614;1.576;2022-09-09T11:25:36;2.97;;;1.88;;
67904;SDS011;54709;43.614;1.576;2022-09-09T11:36:29;4.03;;;1.63;;
67904;SDS011;54709;43.614;1.576;2022-09-09T11:39:09;3.97;;;1.45;;
67904;SDS011;54709;43.614;1.576;2022-09-09T11:41:43;3.15;;;1.45;;
67904;SDS011;54709;43.614;1.576;2022-09-09T11:44:11;4.50;;;1.40;;
67904;SDS011;54709;43.614;1.576;2022-09-09T11:46:38;6.32;;;1.67;;
67904;SDS011;54709;43.614;1.576;2022-09-09T11:49:05;3.40;;;1.30;;
67904;SDS011;54709;43.614;1.576;2022-09-09T11:51:46;3.13;;;1.40;;
67904;SDS011;54709;43.614;1.576;2022-09-09T11:54:31;4.18;;;1.75;;
67904;SDS011;54709;43.614;1.576;2022-09-09T11:56:58;4.65;;;1.30;;
67904;SDS011;54709;43.614;1.576;2022-09-09T11:59:24;1.88;;;1.52;;
67904;SDS011;54709;43.614;1.576;2022-09-09T12:05:14;2.95;;;1.35;;
67904;SDS011;54709;43.614;1.576;2022-09-09T12:07:38;4.00;;;1.63;;
67904;SDS011;54709;43.614;1.576;2022-09-09T12:12:34;2.38;;;1.50;;
67904;SDS011;54709;43.614;1.576;2022-09-09T12:17:41;5.00;;;1.45;;
67904;SDS011;54709;43.614;1.576;2022-09-09T12:20:16;5.75;;;1.60;;
67904;SDS011;54709;43.614;1.576;2022-09-09T12:30:23;4.25;;;1.55;;
67904;SDS011;54709;43.614;1.576;2022-09-09T12:33:01;5.57;;;1.50;;
67904;SDS011;54709;43.614;1.576;2022-09-09T12:35:31;5.60;;;1.63;;
67904;SDS011;54709;43.614;1.576;2022-09-09T12:38:00;3.60;;;1.60;;
67904;SDS011;54709;43.614;1.576;2022-09-09T12:40:28;3.85;;;2.00;;
67904;SDS011;54709;43.614;1.576;2022-09-09T12:42:54;4.85;;;1.88;;
67904;SDS011;54709;43.614;1.576;2022-09-09T12:45:21;8.25;;;1.98;;
67904;SDS011;54709;43.614;1.576;2022-09-09T12:50:34;6.28;;;1.85;;
67904;SDS011;54709;43.614;1.576;2022-09-09T12:55:35;6.22;;;2.08;;
67904;SDS011;54709;43.614;1.576;2022-09-09T12:58:02;4.40;;;1.75;;
67904;SDS011;54709;43.614;1.576;2022-09-09T13:00:30;6.32;;;1.52;;
67904;SDS011;54709;43.614;1.576;2022-09-09T13:03:00;4.43;;;1.88;;
67904;SDS011;54709;43.614;1.576;2022-09-09T13:05:28;6.55;;;2.08;;
67904;SDS011;54709;43.614;1.576;2022-09-09T13:08:09;3.45;;;1.50;;
67904;SDS011;54709;43.614;1.576;2022-09-09T13:10:36;6.40;;;1.60;;
67904;SDS011;54709;43.614;1.576;2022-09-09T13:13:17;5.95;;;1.52;;
67904;SDS011;54709;43.614;1.576;2022-09-09T13:15:59;9.20;;;1.57;;
67904;SDS011;54709;43.614;1.576;2022-09-09T13:18:27;4.97;;;1.70;;
67904;SDS011;54709;43.614;1.576;2022-09-09T13:20:54;4.72;;;1.38;;
67904;SDS011;54709;43.614;1.576;2022-09-09T13:23:23;6.57;;;1.88;;
67904;SDS011;54709;43.614;1.576;2022-09-09T13:25:59;6.00;;;1.85;;
67904;SDS011;54709;43.614;1.576;2022-09-09T13:28:26;12.23;;;1.20;;
67904;SDS011;54709;43.614;1.576;2022-09-09T13:31:00;9.25;;;2.00;;
67904;SDS011;54709;43.614;1.576;2022-09-09T13:36:00;5.40;;;1.20;;
67904;SDS011;54709;43.614;1.576;2022-09-09T13:38:28;3.78;;;1.13;;
67904;SDS011;54709;43.614;1.576;2022-09-09T13:40:55;9.75;;;1.65;;
67904;SDS011;54709;43.614;1.576;2022-09-09T13:43:34;5.38;;;1.45;;
67904;SDS011;54709;43.614;1.576;2022-09-09T13:46:04;5.57;;;1.60;;
67904;SDS011;54709;43.614;1.576;2022-09-09T13:48:54;3.60;;;1.42;;
67904;SDS011;54709;43.614;1.576;2022-09-09T13:51:29;6.07;;;1.50;;
67904;SDS011;54709;43.614;1.576;2022-09-09T13:53:59;7.88;;;1.50;;
67904;SDS011;54709;43.614;1.576;2022-09-09T13:56:25;5.72;;;1.48;;
67904;SDS011;54709;43.614;1.576;2022-09-09T13:58:51;4.18;;;1.30;;
67904;SDS011;54709;43.614;1.576;2022-09-09T14:01:16;4.38;;;1.30;;
67904;SDS011;54709;43.614;1.576;2022-09-09T14:03:41;5.05;;;1.30;;
67904;SDS011;54709;43.614;1.576;2022-09-09T14:06:08;5.57;;;1.67;;
67904;SDS011;54709;43.614;1.576;2022-09-09T14:08:34;6.07;;;1.45;;
67904;SDS011;54709;43.614;1.576;2022-09-09T14:11:02;7.35;;;1.63;;
67904;SDS011;54709;43.614;1.576;2022-09-09T14:13:28;4.68;;;1.33;;
67904;SDS011;54709;43.614;1.576;2022-09-09T14:15:54;5.72;;;1.50;;
67904;SDS011;54709;43.614;1.576;2022-09-09T14:18:19;10.50;;;1.95;;
67904;SDS011;54709;43.614;1.576;2022-09-09T14:20:44;4.75;;;1.40;;
67904;SDS011;54709;43.614;1.576;2022-09-09T14:23:10;4.32;;;1.42;;
67904;SDS011;54709;43.614;1.576;2022-09-09T14:25:38;6.53;;;1.60;;
67904;SDS011;54709;43.614;1.576;2022-09-09T14:28:04;4.20;;;1.30;;
67904;SDS011;54709;43.614;1.576;2022-09-09T14:30:30;6.07;;;1.70;;
67904;SDS011;54709;43.614;1.576;2022-09-09T14:32:55;5.63;;;1.80;;
67904;SDS011;54709;43.614;1.576;2022-09-09T14:35:20;3.90;;;1.52;;
67904;SDS011;54709;43.614;1.576;2022-09-09T14:37:47;5.63;;;1.58;;
67904;SDS011;54709;43.614;1.576;2022-09-09T14:40:13;5.28;;;1.95;;
67904;SDS011;54709;43.614;1.576;2022-09-09T14:42:39;5.80;;;2.13;;
67904;SDS011;54709;43.614;1.576;2022-09-09T14:45:05;5.85;;;1.55;;
67904;SDS011;54709;43.614;1.576;2022-09-09T14:47:31;4.95;;;1.30;;
67904;SDS011;54709;43.614;1.576;2022-09-09T14:49:57;5.57;;;1.70;;
67904;SDS011;54709;43.614;1.576;2022-09-09T14:52:22;5.05;;;1.50;;
67904;SDS011;54709;43.614;1.576;2022-09-09T14:54:47;7.38;;;1.67;;
67904;SDS011;54709;43.614;1.576;2022-09-09T14:57:13;5.50;;;1.80;;
67904;SDS011;54709;43.614;1.576;2022-09-09T14:59:38;4.35;;;1.27;;
67904;SDS011;54709;43.614;1.576;2022-09-09T15:02:04;9.40;;;1.73;;
67904;SDS011;54709;43.614;1.576;2022-09-09T15:04:29;9.63;;;2.08;;
67904;SDS011;54709;43.614;1.576;2022-09-09T15:06:54;4.38;;;1.50;;
67904;SDS011;54709;43.614;1.576;2022-09-09T15:09:20;9.05;;;1.40;;
67904;SDS011;54709;43.614;1.576;2022-09-09T15:11:45;7.13;;;1.60;;
67904;SDS011;54709;43.614;1.576;2022-09-09T15:14:11;3.55;;;1.40;;
67904;SDS011;54709;43.614;1.576;2022-09-09T15:16:37;4.57;;;1.40;;
67904;SDS011;54709;43.614;1.576;2022-09-09T15:19:03;6.25;;;1.50;;
67904;SDS011;54709;43.614;1.576;2022-09-09T15:21:29;4.05;;;1.50;;
67904;SDS011;54709;43.614;1.576;2022-09-09T15:23:56;5.80;;;1.60;;
67904;SDS011;54709;43.614;1.576;2022-09-09T15:26:22;4.35;;;1.30;;
67904;SDS011;54709;43.614;1.576;2022-09-09T15:28:48;5.72;;;1.20;;
67904;SDS011;54709;43.614;1.576;2022-09-09T15:31:18;3.22;;;1.55;;
67904;SDS011;54709;43.614;1.576;2022-09-09T15:34:17;4.50;;;1.20;;
67904;SDS011;54709;43.614;1.576;2022-09-09T15:39:06;3.83;;;1.20;;
67904;SDS011;54709;43.614;1.576;2022-09-09T15:41:34;5.13;;;1.50;;
67904;SDS011;54709;43.614;1.576;2022-09-09T15:44:01;6.75;;;1.60;;
67904;SDS011;54709;43.614;1.576;2022-09-09T15:46:28;5.68;;;1.38;;
67904;SDS011;54709;43.614;1.576;2022-09-09T15:48:58;5.70;;;1.60;;
67904;SDS011;54709;43.614;1.576;2022-09-09T15:51:27;3.95;;;1.40;;
67904;SDS011;54709;43.614;1.576;2022-09-09T15:53:53;5.65;;;1.60;;
67904;SDS011;54709;43.614;1.576;2022-09-09T15:56:22;2.60;;;1.10;;
67904;SDS011;54709;43.614;1.576;2022-09-09T15:58:48;4.85;;;1.63;;
67904;SDS011;54709;43.614;1.576;2022-09-09T16:01:13;3.38;;;1.25;;
67904;SDS011;54709;43.614;1.576;2022-09-09T16:03:40;4.13;;;1.60;;
67904;SDS011;54709;43.614;1.576;2022-09-09T16:06:07;5.75;;;1.50;;
67904;SDS011;54709;43.614;1.576;2022-09-09T16:08:41;4.03;;;1.25;;
67904;SDS011;54709;43.614;1.576;2022-09-09T16:11:12;4.50;;;1.30;;
67904;SDS011;54709;43.614;1.576;2022-09-09T16:13:43;9.27;;;1.65;;
67904;SDS011;54709;43.614;1.576;2022-09-09T16:16:12;5.55;;;1.45;;
67904;SDS011;54709;43.614;1.576;2022-09-09T16:18:48;6.32;;;1.40;;
67904;SDS011;54709;43.614;1.576;2022-09-09T16:21:18;5.80;;;1.40;;
67904;SDS011;54709;43.614;1.576;2022-09-09T16:23:49;3.75;;;1.40;;
67904;SDS011;54709;43.614;1.576;2022-09-09T16:26:16;7.00;;;1.58;;
67904;SDS011;54709;43.614;1.576;2022-09-09T16:28:41;5.03;;;1.27;;
67904;SDS011;54709;43.614;1.576;2022-09-09T16:31:08;4.40;;;1.52;;
67904;SDS011;54709;43.614;1.576;2022-09-09T16:33:35;3.88;;;1.40;;
67904;SDS011;54709;43.614;1.576;2022-09-09T16:36:34;4.85;;;1.58;;
67904;SDS011;54709;43.614;1.576;2022-09-09T16:38:56;6.20;;;1.52;;
67904;SDS011;54709;43.614;1.576;2022-09-09T16:41:22;4.28;;;1.42;;
67904;SDS011;54709;43.614;1.576;2022-09-09T16:43:52;6.80;;;1.90;;
67904;SDS011;54709;43.614;1.576;2022-09-09T16:46:20;5.57;;;1.40;;
67904;SDS011;54709;43.614;1.576;2022-09-09T16:48:46;5.63;;;1.52;;
67904;SDS011;54709;43.614;1.576;2022-09-09T16:51:20;4.07;;;1.40;;
67904;SDS011;54709;43.614;1.576;2022-09-09T16:53:48;3.13;;;1.40;;
67904;SDS011;54709;43.614;1.576;2022-09-09T16:56:14;6.75;;;1.60;;
67904;SDS011;54709;43.614;1.576;2022-09-09T16:58:41;3.33;;;1.48;;
67904;SDS011;54709;43.614;1.576;2022-09-09T17:01:10;5.43;;;1.60;;
67904;SDS011;54709;43.614;1.576;2022-09-09T17:03:39;9.98;;;1.70;;
67904;SDS011;54709;43.614;1.576;2022-09-09T17:06:08;5.38;;;1.33;;
67904;SDS011;54709;43.614;1.576;2022-09-09T17:08:34;4.05;;;1.35;;
67904;SDS011;54709;43.614;1.576;2022-09-09T17:11:00;5.63;;;1.40;;
67904;SDS011;54709;43.614;1.576;2022-09-09T17:13:26;6.43;;;1.40;;
67904;SDS011;54709;43.614;1.576;2022-09-09T17:15:51;4.55;;;1.60;;
67904;SDS011;54709;43.614;1.576;2022-09-09T17:18:17;5.82;;;1.70;;
67904;SDS011;54709;43.614;1.576;2022-09-09T17:20:42;4.05;;;1.55;;
67904;SDS011;54709;43.614;1.576;2022-09-09T17:23:09;4.50;;;1.42;;
67904;SDS011;54709;43.614;1.576;2022-09-09T17:25:35;5.72;;;1.35;;
67904;SDS011;54709;43.614;1.576;2022-09-09T17:28:01;6.18;;;1.50;;
67904;SDS011;54709;43.614;1.576;2022-09-09T17:30:28;5.55;;;1.60;;
67904;SDS011;54709;43.614;1.576;2022-09-09T17:32:55;5.80;;;1.77;;